Oden — SMLQ — position and weather

sailwx.info

Track history (hours):
 
Tides and Currents Weather Stations Pressure Air Temp Water Temp Dewpoint Dewpoint Depression Visibility Wind Speed Wind Dir Waves Ship Positions

Oceanographic research ship Oden (Sweden)

Detailed information on ship capabilities available from ARCUS's ALIAS (Arctic Logistics Information and Support) project.

Last reported at 2020-Jan-24 02:00 UTC. Time now 2020-Jan-24 04:27 UTC.
Position N 65°36' E 022°12'.

Length 108 m; draft 8.1 m.

Type: Other ship. MMSI: 265182000.

Wind from 300 at 14 knots

Barometer 990.0 mb
Air temperature -0.2 ° C
Water temperature 0.8 ° C

Date/timePositionNaut miles runAvg speedWind from/ knotsBaromVisibWave heightAir tempDewpointWater temp
2020-Jan-24 02:00N 65°36' E 022°12'0 0.0 300 / 14990.0 -0.2 0.8
2020-Jan-24 01:00N 65°36' E 022°12'0 0.0 280 / 16990.0 0.5 0.9
2020-Jan-24 00:00N 65°36' E 022°12'0 0.0 300 / 16990.0 0.9 0.8
2020-Jan-23 23:00N 65°36' E 022°12'0 0.0 290 / 14990.0 1.3 0.8
2020-Jan-23 22:00N 65°36' E 022°12'0 0.0 290 / 12990.0 1.5 0.8
2020-Jan-23 20:00N 65°36' E 022°12'0 0.0 270 / 14990.0 1.5 0.8
2020-Jan-23 19:00N 65°36' E 022°12'0 0.0 260 / 10990.0 0.7 0.8
2020-Jan-23 18:00N 65°36' E 022°12'0 0.0 210 / 6991.0 -2.3 0.8
2020-Jan-23 17:00N 65°36' E 022°12'0 0.0 180 / 4991.0 -2.6 0.8
2020-Jan-23 16:00N 65°36' E 022°12'0 0.0 180 / 8992.0 -2.2 0.8
2020-Jan-23 14:00N 65°36' E 022°12'0 0.0 180 / 6995.0 -1.5 0.8
2020-Jan-23 13:00N 65°36' E 022°12'0 0.0 190 / 14996.0 -1.0 0.8
2020-Jan-23 12:00N 65°36' E 022°12'0 0.0 180 / 17998.0 -0.7 0.9
2020-Jan-23 11:00N 65°36' E 022°12'0 0.0 190 / 161000.0 -1.8 0.8
2020-Jan-23 10:00N 65°36' E 022°12'0 0.0 180 / 161003.0 -2.0 0.9
2020-Jan-23 08:00N 65°36' E 022°12'0 0.0 180 / 81006.0 -3.1 0.8
2020-Jan-23 07:00N 65°36' E 022°12'0 0.0 170 / 61008.0 -4.1 0.9
2020-Jan-23 06:00N 65°36' E 022°12'0 0.0 130 / 61009.0 -4.1 0.9
2020-Jan-23 05:00N 65°36' E 022°12'0 0.0 170 / 41010.0 -4.1 0.9
2020-Jan-23 04:00N 65°36' E 022°12'0 0.0 210 / 41011.0 -4.1 0.9
2020-Jan-23 02:00N 65°36' E 022°12'0 0.0 330 / 61013.0 -3.5 0.9
2020-Jan-23 01:00N 65°36' E 022°12'0 0.0 330 / 61014.0 -3.4 0.9
2020-Jan-23 00:00N 65°36' E 022°12'0 0.0 340 / 61014.0 -3.9 0.9
2020-Jan-22 23:00N 65°36' E 022°12'0 0.0 330 / 61014.0 -4.1 0.9
2020-Jan-22 22:00N 65°36' E 022°12'0 0.0 320 / 101014.0 -4.4 0.8
2020-Jan-22 20:00N 65°36' E 022°12'0 0.0 330 / 101014.0 -4.1 0.9
2020-Jan-22 19:00N 65°36' E 022°12'0 0.0 320 / 21014.0 -4.0 0.9
2020-Jan-22 18:00N 65°36' E 022°12'0 0.0 320 / 101014.0 -4.4 0.8
2020-Jan-22 17:00N 65°36' E 022°12'0 0.0 320 / 41014.0 -3.4 0.9
2020-Jan-22 16:00N 65°36' E 022°12'0 0.0 330 / 101013.0 -3.5 0.9
2020-Jan-22 14:00N 65°36' E 022°12'0 0.0 310 / 61012.0 -2.5 0.9
2020-Jan-22 13:00N 65°36' E 022°12'0 0.0 340 / 101011.0 -0.8 0.9
2020-Jan-22 12:00N 65°36' E 022°12'0 0.0 340 / 61010.0 -1.7 0.9
2020-Jan-22 11:00N 65°36' E 022°12'0 0.0 320 / 101009.0 -2.3 0.9
2020-Jan-22 10:00N 65°36' E 022°12'0 0.0 320 / 41008.0 -2.3 0.9
2020-Jan-22 08:00N 65°36' E 022°12'0 0.0 320 / 101006.0 -3.3 0.9
2020-Jan-22 07:00N 65°36' E 022°12'0 0.0 330 / 101005.0 -1.8 0.9
2020-Jan-22 06:00N 65°36' E 022°12'0 0.0 350 / 141003.0 -2.0 0.8
2020-Jan-22 05:00N 65°36' E 022°12'0 0.0 350 / 161001.0 -2.0 0.9
2020-Jan-22 04:00N 65°36' E 022°12'0 0.0 340 / 141000.0 -1.9 0.9
2020-Jan-22 02:00N 65°36' E 022°12'0 0.0 330 / 14997.0 -1.9 0.9
2020-Jan-22 01:00N 65°36' E 022°12'0 0.0 330 / 16996.0 -0.9 0.9
2020-Jan-22 00:00N 65°36' E 022°12'0 0.0 330 / 14995.0 -0.0 0.9
2020-Jan-21 23:00N 65°36' E 022°12'0 0.0 320 / 14994.0 -0.2 0.8
2020-Jan-21 22:00N 65°36' E 022°12'0 0.0 320 / 17994.0 0.2 0.8
2020-Jan-21 20:00N 65°36' E 022°12'0 0.0 130 / 4994.0 -0.4 0.9
2020-Jan-21 19:00N 65°36' E 022°12'0 0.0 140 / 4993.0 -0.2 0.9
2020-Jan-21 18:00N 65°36' E 022°12'0 0.0 290 / 16994.0 0.3 0.9
2020-Jan-21 17:00N 65°36' E 022°12'0 0.0 290 / 14994.0 0.3 0.9
2020-Jan-21 16:00N 65°36' E 022°12'0 0.0 300 / 16995.0 0.7 0.8
2020-Jan-21 14:00N 65°36' E 022°12'0 0.0 280 / 16996.0 1.0 0.9
2020-Jan-21 13:00N 65°36' E 022°12'0 0.0 290 / 16996.0 1.5 0.8
2020-Jan-21 12:00N 65°36' E 022°12'0 0.0 300 / 14996.0 1.7 0.7
2020-Jan-21 11:00N 65°36' E 022°12'0 0.0 300 / 16997.0 1.8 0.7
2020-Jan-21 10:00N 65°36' E 022°12'0 0.0 290 / 14997.0 1.8 0.9
2020-Jan-21 08:00N 65°36' E 022°12'0 0.0 290 / 14996.0 2.0 0.9
2020-Jan-21 07:00N 65°36' E 022°12'0 0.0 110 / 4996.0 2.6 0.9
2020-Jan-21 06:00N 65°36' E 022°12'0 0.0 110 / 4995.0 3.5 0.9
2020-Jan-21 05:00N 65°36' E 022°12'0 0.0 110 / 4994.0 4.0 0.9
2020-Jan-21 04:00N 65°36' E 022°12'0 0.0 300 / 14993.0 4.2 0.9
2020-Jan-21 02:00N 65°36' E 022°12'0 0.0 310 / 14993.0 4.6 0.9
2020-Jan-21 01:00N 65°36' E 022°12'0 0.0 310 / 16993.0 5.3 0.9
2020-Jan-21 00:00N 65°36' E 022°12'0 0.0 310 / 16993.0 5.4 0.8
2020-Jan-20 23:00N 65°36' E 022°12'0 0.0 310 / 16993.0 5.8 0.8
2020-Jan-20 22:00N 65°36' E 022°12'0 0.0 270 / 10992.0 5.9 0.9
2020-Jan-20 20:00N 65°36' E 022°12'0 0.0 190 / 12992.0 3.5 0.8
2020-Jan-20 19:00N 65°36' E 022°12'0 0.0 180 / 8993.0 3.0 0.9
2020-Jan-20 18:00N 65°36' E 022°12'0 0.0 210 / 16995.0 3.5 0.9
2020-Jan-20 17:00N 65°36' E 022°12'0 0.0 220 / 14997.0 4.3 0.9
2020-Jan-20 16:00N 65°36' E 022°12'0 0.0 190 / 8999.0 2.7 0.9
2020-Jan-20 14:00N 65°36' E 022°12'0 0.0 210 / 141002.0 2.8 0.8
2020-Jan-20 13:00N 65°36' E 022°12'0 0.0 220 / 121003.0 2.5 0.8
2020-Jan-20 12:00N 65°36' E 022°12'0 0.0 210 / 101004.0 1.8 0.8
2020-Jan-20 11:00N 65°36' E 022°12'0 0.0 220 / 81004.0 0.9 0.7
2020-Jan-20 10:00N 65°36' E 022°12'0 0.0 170 / 101005.0 0.4 0.7
2020-Jan-20 08:00N 65°36' E 022°12'0 0.0 200 / 171005.0 0.4 0.8
2020-Jan-20 07:00N 65°36' E 022°12'0 0.0 210 / 141006.0 -0.2 0.7
2020-Jan-20 06:00N 65°36' E 022°12'0 0.0 180 / 101007.0 -0.7 0.7
2020-Jan-20 05:00N 65°36' E 022°12'0 0.0 200 / 191008.0 -0.9 0.8
2020-Jan-20 04:00N 65°36' E 022°12'0 0.0 200 / 141010.0 -1.5 0.7
2020-Jan-20 02:00N 65°36' E 022°12'0 0.0 160 / 81015.0 -3.9 0.8
2020-Jan-20 01:00N 65°36' E 022°12'0 0.0 200 / 101015.0 -4.2 0.9
2020-Jan-20 00:00N 65°36' E 022°12'0 0.0 200 / 121016.0 -4.6 0.8
2020-Jan-19 23:00N 65°36' E 022°12'0 0.0 180 / 81017.0 -5.8 0.8
2020-Jan-19 22:00N 65°36' E 022°12'0 0.0 180 / 61019.0 -6.7 0.9
2020-Jan-19 20:00N 65°36' E 022°12'0 0.0 310 / 41019.0 -5.7 0.9
2020-Jan-19 19:00N 65°36' E 022°12'0 0.0 010 / 21019.0 -5.9 0.9
2020-Jan-19 18:00N 65°36' E 022°12'0 0.0 320 / 121020.0 -5.2 0.9
2020-Jan-19 17:00N 65°36' E 022°12'0 0.0 330 / 121019.0 -4.6 0.8
2020-Jan-19 16:00N 65°36' E 022°12'0 0.0 330 / 61018.0 -4.9 0.8
2020-Jan-19 14:00N 65°36' E 022°12'0 0.0 340 / 121017.0 -4.5 0.9
2020-Jan-19 13:00N 65°36' E 022°12'0 0.0 340 / 161016.0 -4.4 0.9
2020-Jan-19 12:00N 65°36' E 022°12'0 0.0 340 / 121014.0 -5.2 0.9
2020-Jan-19 11:00N 65°36' E 022°12'0 0.0 340 / 121012.0 -5.5 0.9
2020-Jan-19 10:00N 65°36' E 022°12'0 0.0 340 / 121012.0 -5.9 0.9
2020-Jan-19 08:00N 65°36' E 022°12'0 0.0 340 / 141009.0 -5.2 0.9
2020-Jan-19 07:00N 65°36' E 022°12'0 0.0 350 / 141008.0 -5.0 0.9
2020-Jan-19 06:00N 65°36' E 022°12'0 0.0 350 / 161007.0 -5.0 0.9
2020-Jan-19 05:00N 65°36' E 022°12'0 0.0 350 / 161006.0 -5.3 0.9
2020-Jan-19 04:00N 65°36' E 022°12'0 0.0 340 / 121005.0 -5.5 0.9
2020-Jan-19 02:00N 65°36' E 022°12'0 0.0 340 / 141004.0 -5.6 0.9
2020-Jan-19 01:00N 65°36' E 022°12'0 0.0 350 / 141004.0 -5.7 0.9
2020-Jan-19 00:00N 65°36' E 022°12'0 0.0 350 / 121003.0 -5.9 0.9
2020-Jan-18 23:00N 65°36' E 022°12'0 0.0 350 / 121003.0 -6.0 0.9
2020-Jan-18 22:00N 65°36' E 022°12'0 0.0 340 / 121003.0 -6.0 0.9
2020-Jan-18 20:00N 65°36' E 022°12'0 0.0 350 / 121003.0 -6.1 0.9
2020-Jan-18 19:00N 65°36' E 022°12'0 0.0 350 / 101003.0 -6.0 0.8
2020-Jan-18 18:00N 65°36' E 022°12'0 0.0 350 / 101003.0 -5.9 0.8
2020-Jan-18 17:00N 65°36' E 022°12'0 0.0 350 / 101002.0 -5.8 0.8
2020-Jan-18 16:00N 65°36' E 022°12'0 0.0 350 / 101003.0 -5.7 0.8
2020-Jan-18 14:00N 65°36' E 022°12'0 0.0 350 / 81003.0 -5.7 0.8
2020-Jan-18 13:00N 65°36' E 022°12'0 0.0 350 / 101003.0 -5.7 0.8
2020-Jan-18 12:00N 65°36' E 022°12'0 0.0 350 / 121004.0 -5.8 0.8
2020-Jan-18 11:00N 65°36' E 022°12'0 0.0 350 / 101004.0 -5.9 0.8
2020-Jan-18 10:00N 65°36' E 022°12'0 0.0 350 / 81005.0 -6.3 0.8
2020-Jan-18 08:00N 65°36' E 022°12'0 0.0 350 / 101006.0 -6.8 0.8
2020-Jan-18 07:00N 65°36' E 022°12'0 0.0 350 / 101006.0 -7.1 0.8
2020-Jan-18 06:00N 65°36' E 022°12'0 0.0 350 / 81007.0 -7.2 0.8
2020-Jan-18 05:00N 65°36' E 022°12'0 0.0 350 / 61007.0 -7.3 0.8
2020-Jan-18 04:00N 65°36' E 022°12'0 0.0 350 / 81008.0 -7.5 0.8
2020-Jan-18 02:00N 65°36' E 022°12'0 0.0 350 / 81009.0 -7.7 0.8
2020-Jan-18 01:00N 65°36' E 022°12'0 0.0 350 / 81010.0 -7.7 0.8
2020-Jan-18 00:00N 65°36' E 022°12'0 0.0 350 / 81010.0 -7.8 0.8
2020-Jan-17 23:00N 65°36' E 022°12'0 0.0 1011.0 -7.9 0.8
2020-Jan-17 22:00N 65°36' E 022°12'0 0.0 1011.0 -8.0 0.8
2020-Jan-17 20:00N 65°36' E 022°12'0 0.0 1012.0 -8.2 0.8
2020-Jan-17 19:00N 65°36' E 022°12'0 0.0 010 / 61012.0 -8.3 0.8
2020-Jan-17 18:00N 65°36' E 022°12'0 0.0 010 / 61012.0 -8.3 0.8
2020-Jan-17 17:00N 65°36' E 022°12'0 0.0 1013.0 -8.4 0.8
2020-Jan-17 16:00N 65°36' E 022°12'0 0.0 360 / 61012.0 -8.6 0.8
2020-Jan-17 14:00N 65°36' E 022°12'0 0.0 010 / 41012.0 -8.2 0.7
2020-Jan-17 13:00N 65°36' E 022°12'0 0.0 360 / 61012.0 -8.2 0.8
2020-Jan-17 12:00N 65°36' E 022°12'0 0.0 1011.0 -8.1 0.7
2020-Jan-17 11:00N 65°36' E 022°12'0 0.0 1011.0 -7.4 0.7
2020-Jan-17 10:00N 65°36' E 022°12'0 0.0 350 / 81010.0 -7.4 0.8
2020-Jan-17 08:00N 65°36' E 022°12'0 0.0 350 / 81008.0 -8.8
2020-Jan-17 07:00N 65°36' E 022°12'0 0.0 350 / 61007.0 -9.4
2020-Jan-17 06:00N 65°36' E 022°12'0 0.0 350 / 61006.0 -9.3
2020-Jan-17 05:00N 65°36' E 022°12'0 0.0 350 / 41005.0 -9.1
2020-Jan-17 04:00N 65°36' E 022°12'0 0.0 350 / 61004.0 -8.6
2020-Jan-17 02:00N 65°36' E 022°12'0 0.0 330 / 41003.0 -7.8
2020-Jan-17 01:00N 65°36' E 022°12'0 0.0 340 / 41003.0 -6.8
2020-Jan-17 00:00N 65°36' E 022°12'0 0.0 320 / 21002.0 -3.9
2020-Jan-16 23:00N 65°36' E 022°12'0 0.0 180 / 41002.0 -3.6
2020-Jan-16 22:00N 65°36' E 022°12'0 0.0 200 / 61002.0 -3.3
2020-Jan-16 20:00N 65°36' E 022°12'0 0.0 210 / 101002.0 -2.8
2020-Jan-16 19:00N 65°36' E 022°12'0 0.0 150 / 61002.0 -4.3
2020-Jan-16 18:00N 65°36' E 022°12'0 0.0 170 / 81003.0 -5.5
2020-Jan-16 17:00N 65°36' E 022°12'0 0.0 120 / 41003.0 -6.7
2020-Jan-16 16:00N 65°36' E 022°12'0 0.0 180 / 61003.0 -7.2
2020-Jan-16 14:00N 65°36' E 022°12'0 0.0 120 / 21003.0 -7.9
2020-Jan-16 13:00N 65°36' E 022°12'0 0.0 020 / 21002.0 -7.4
2020-Jan-16 12:00N 65°36' E 022°12'0 0.0 320 / 41003.0 -7.3
2020-Jan-16 11:00N 65°36' E 022°12'0 0.0 350 / 61002.0 -8.1
2020-Jan-16 10:00N 65°36' E 022°12'0 0.0 340 / 41001.0 -8.4
2020-Jan-16 08:00N 65°36' E 022°12'0 0.0 350 / 2999.0 -8.4
2020-Jan-16 07:00N 65°36' E 022°12'0 0.0 350 / 6998.0 -8.3
2020-Jan-16 06:00N 65°36' E 022°12'0 0.0 350 / 6997.0 -7.9
2020-Jan-16 05:00N 65°36' E 022°12'0 0.0 350 / 6997.0 -7.7
2020-Jan-16 04:00N 65°36' E 022°12'0 0.0 350 / 8996.0 -7.3
2020-Jan-16 02:00N 65°36' E 022°12'0 0.0 340 / 12995.0 -7.1
2020-Jan-16 01:00N 65°36' E 022°12'0 0.0 340 / 8994.0 -6.9
2020-Jan-16 00:00N 65°36' E 022°12'0 0.0 350 / 8993.0 -6.7
2020-Jan-15 23:00N 65°36' E 022°12'0 0.0 360 / 8992.0 -7.0
2020-Jan-15 22:00N 65°36' E 022°12'0 0.0 360 / 8991.0 -7.2
2020-Jan-15 20:00N 65°36' E 022°12'0 0.0 350 / 10989.0 -5.9
2020-Jan-15 19:00N 65°36' E 022°12'0 0.0 350 / 6988.0 -4.0
2020-Jan-15 18:00N 65°36' E 022°12'0 0.0 360 / 6986.0 -3.6
2020-Jan-15 17:00N 65°36' E 022°12'0 0.0 320 / 6985.0 -3.1
2020-Jan-15 16:00N 65°36' E 022°12'0 0.0 300 / 4984.0 -1.9
2020-Jan-15 14:00N 65°36' E 022°12'0 0.0 230 / 2983.0 -1.4
2020-Jan-15 13:00N 65°36' E 022°12'0 0.0 100 / 2983.0 -0.8
2020-Jan-15 12:00N 65°36' E 022°12'0 0.0 230 / 2983.0 -0.6
2020-Jan-15 11:00N 65°36' E 022°12'0 0.0 180 / 6983.0 -0.4
2020-Jan-15 10:00N 65°36' E 022°12'0 0.0 170 / 6984.0 -0.9
2020-Jan-15 08:00N 65°36' E 022°12'0 0.0 170 / 8984.0 -0.2
2020-Jan-15 07:00N 65°36' E 022°12'0 0.0 170 / 4984.0 -0.2
2020-Jan-15 06:00N 65°36' E 022°12'0 0.0 190 / 8984.0 -0.1
2020-Jan-15 05:00N 65°36' E 022°12'0 0.0 200 / 6984.0 -0.2
2020-Jan-15 04:00N 65°36' E 022°12'0 0.0 230 / 6984.0 0.4
2020-Jan-15 02:00N 65°36' E 022°12'0 0.0 220 / 8983.0 0.5
2020-Jan-15 01:00N 65°36' E 022°12'0 0.0 210 / 12983.0 0.9
2020-Jan-15 00:00N 65°36' E 022°12'0 0.0 210 / 12983.0 0.8
2020-Jan-14 23:00N 65°36' E 022°12'0 0.0 220 / 10983.0 1.1
2020-Jan-14 22:00N 65°36' E 022°12'0 0.0 220 / 10983.0 1.5
2020-Jan-14 20:00N 65°36' E 022°12'0 0.0 210 / 12983.0 1.1
2020-Jan-14 19:00N 65°36' E 022°12'0 0.0 200 / 17983.0 0.8
2020-Jan-14 18:00N 65°36' E 022°12'0 0.0 190 / 23983.0 0.6
2020-Jan-14 17:00N 65°36' E 022°12'0 0.0 190 / 25984.0 0.6
2020-Jan-14 16:00N 65°36' E 022°12'0 0.0 190 / 27986.0 1.1
2020-Jan-14 14:00N 65°36' E 022°12'0 0.0 190 / 27989.0 1.3
2020-Jan-14 13:00N 65°36' E 022°12'0 0.0 180 / 21990.0 1.3
2020-Jan-14 12:00N 65°36' E 022°12'0 0.0 180 / 14991.0 0.1
2020-Jan-14 11:00N 65°36' E 022°12'0 0.0 190 / 14993.0 -0.4
2020-Jan-14 10:00N 65°36' E 022°12'0 0.0 200 / 16992.0 -0.5
2020-Jan-14 08:00N 65°36' E 022°12'0 0.0 180 / 8993.0 -0.9
2020-Jan-14 07:00N 65°36' E 022°12'0 0.0 190 / 6994.0 -0.7
2020-Jan-14 06:00N 65°36' E 022°12'0 0.0 120 / 4994.0 -0.7
2020-Jan-14 05:00N 65°36' E 022°12'0 0.0 150 / 4995.0 -0.9
2020-Jan-14 04:00N 65°36' E 022°12'0 0.0 190 / 8995.0 -0.2
2020-Jan-14 02:00N 65°36' E 022°12'   170 / 4994.0 -0.8
Track history (hours):
 
Tides and Currents Weather Stations Pressure Air Temp Water Temp Dewpoint Dewpoint Depression Visibility Wind Speed Wind Dir Waves Ship Positions

Oceanographic research ship Oden (Sweden)

Detailed information on ship capabilities available from ARCUS's ALIAS (Arctic Logistics Information and Support) project.

Last reported at 2020-Jan-24 02:00 UTC. Time now 2020-Jan-24 04:27 UTC.
Position N 65°36' E 022°12'.

Length 108 m; draft 8.1 m.

Type: Other ship. MMSI: 265182000.

Wind from 300 at 14 knots

Barometer 990.0 mb
Air temperature -0.2 ° C
Water temperature 0.8 ° C

Date/timePositionNaut miles runAvg speedWind from/ knotsBaromVisibWave heightAir tempDewpointWater temp
2020-Jan-24 02:00N 65°36' E 022°12'0 0.0 300 / 14990.0 -0.2 0.8
2020-Jan-24 01:00N 65°36' E 022°12'0 0.0 280 / 16990.0 0.5 0.9
2020-Jan-24 00:00N 65°36' E 022°12'0 0.0 300 / 16990.0 0.9 0.8
2020-Jan-23 23:00N 65°36' E 022°12'0 0.0 290 / 14990.0 1.3 0.8
2020-Jan-23 22:00N 65°36' E 022°12'0 0.0 290 / 12990.0 1.5 0.8
2020-Jan-23 20:00N 65°36' E 022°12'0 0.0 270 / 14990.0 1.5 0.8
2020-Jan-23 19:00N 65°36' E 022°12'0 0.0 260 / 10990.0 0.7 0.8
2020-Jan-23 18:00N 65°36' E 022°12'0 0.0 210 / 6991.0 -2.3 0.8
2020-Jan-23 17:00N 65°36' E 022°12'0 0.0 180 / 4991.0 -2.6 0.8
2020-Jan-23 16:00N 65°36' E 022°12'0 0.0 180 / 8992.0 -2.2 0.8
2020-Jan-23 14:00N 65°36' E 022°12'0 0.0 180 / 6995.0 -1.5 0.8
2020-Jan-23 13:00N 65°36' E 022°12'0 0.0 190 / 14996.0 -1.0 0.8
2020-Jan-23 12:00N 65°36' E 022°12'0 0.0 180 / 17998.0 -0.7 0.9
2020-Jan-23 11:00N 65°36' E 022°12'0 0.0 190 / 161000.0 -1.8 0.8
2020-Jan-23 10:00N 65°36' E 022°12'0 0.0 180 / 161003.0 -2.0 0.9
2020-Jan-23 08:00N 65°36' E 022°12'0 0.0 180 / 81006.0 -3.1 0.8
2020-Jan-23 07:00N 65°36' E 022°12'0 0.0 170 / 61008.0 -4.1 0.9
2020-Jan-23 06:00N 65°36' E 022°12'0 0.0 130 / 61009.0 -4.1 0.9
2020-Jan-23 05:00N 65°36' E 022°12'0 0.0 170 / 41010.0 -4.1 0.9
2020-Jan-23 04:00N 65°36' E 022°12'0 0.0 210 / 41011.0 -4.1 0.9
2020-Jan-23 02:00N 65°36' E 022°12'0 0.0 330 / 61013.0 -3.5 0.9
2020-Jan-23 01:00N 65°36' E 022°12'0 0.0 330 / 61014.0 -3.4 0.9
2020-Jan-23 00:00N 65°36' E 022°12'0 0.0 340 / 61014.0 -3.9 0.9
2020-Jan-22 23:00N 65°36' E 022°12'0 0.0 330 / 61014.0 -4.1 0.9
2020-Jan-22 22:00N 65°36' E 022°12'0 0.0 320 / 101014.0 -4.4 0.8
2020-Jan-22 20:00N 65°36' E 022°12'0 0.0 330 / 101014.0 -4.1 0.9
2020-Jan-22 19:00N 65°36' E 022°12'0 0.0 320 / 21014.0 -4.0 0.9
2020-Jan-22 18:00N 65°36' E 022°12'0 0.0 320 / 101014.0 -4.4 0.8
2020-Jan-22 17:00N 65°36' E 022°12'0 0.0 320 / 41014.0 -3.4 0.9
2020-Jan-22 16:00N 65°36' E 022°12'0 0.0 330 / 101013.0 -3.5 0.9
2020-Jan-22 14:00N 65°36' E 022°12'0 0.0 310 / 61012.0 -2.5 0.9
2020-Jan-22 13:00N 65°36' E 022°12'0 0.0 340 / 101011.0 -0.8 0.9
2020-Jan-22 12:00N 65°36' E 022°12'0 0.0 340 / 61010.0 -1.7 0.9
2020-Jan-22 11:00N 65°36' E 022°12'0 0.0 320 / 101009.0 -2.3 0.9
2020-Jan-22 10:00N 65°36' E 022°12'0 0.0 320 / 41008.0 -2.3 0.9
2020-Jan-22 08:00N 65°36' E 022°12'0 0.0 320 / 101006.0 -3.3 0.9
2020-Jan-22 07:00N 65°36' E 022°12'0 0.0 330 / 101005.0 -1.8 0.9
2020-Jan-22 06:00N 65°36' E 022°12'0 0.0 350 / 141003.0 -2.0 0.8
2020-Jan-22 05:00N 65°36' E 022°12'0 0.0 350 / 161001.0 -2.0 0.9
2020-Jan-22 04:00N 65°36' E 022°12'0 0.0 340 / 141000.0 -1.9 0.9
2020-Jan-22 02:00N 65°36' E 022°12'0 0.0 330 / 14997.0 -1.9 0.9
2020-Jan-22 01:00N 65°36' E 022°12'0 0.0 330 / 16996.0 -0.9 0.9
2020-Jan-22 00:00N 65°36' E 022°12'0 0.0 330 / 14995.0 -0.0 0.9
2020-Jan-21 23:00N 65°36' E 022°12'0 0.0 320 / 14994.0 -0.2 0.8
2020-Jan-21 22:00N 65°36' E 022°12'0 0.0 320 / 17994.0 0.2 0.8
2020-Jan-21 20:00N 65°36' E 022°12'0 0.0 130 / 4994.0 -0.4 0.9
2020-Jan-21 19:00N 65°36' E 022°12'0 0.0 140 / 4993.0 -0.2 0.9
2020-Jan-21 18:00N 65°36' E 022°12'0 0.0 290 / 16994.0 0.3 0.9
2020-Jan-21 17:00N 65°36' E 022°12'0 0.0 290 / 14994.0 0.3 0.9
2020-Jan-21 16:00N 65°36' E 022°12'0 0.0 300 / 16995.0 0.7 0.8
2020-Jan-21 14:00N 65°36' E 022°12'0 0.0 280 / 16996.0 1.0 0.9
2020-Jan-21 13:00N 65°36' E 022°12'0 0.0 290 / 16996.0 1.5 0.8
2020-Jan-21 12:00N 65°36' E 022°12'0 0.0 300 / 14996.0 1.7 0.7
2020-Jan-21 11:00N 65°36' E 022°12'0 0.0 300 / 16997.0 1.8 0.7
2020-Jan-21 10:00N 65°36' E 022°12'0 0.0 290 / 14997.0 1.8 0.9
2020-Jan-21 08:00N 65°36' E 022°12'0 0.0 290 / 14996.0 2.0 0.9
2020-Jan-21 07:00N 65°36' E 022°12'0 0.0 110 / 4996.0 2.6 0.9
2020-Jan-21 06:00N 65°36' E 022°12'0 0.0 110 / 4995.0 3.5 0.9
2020-Jan-21 05:00N 65°36' E 022°12'0 0.0 110 / 4994.0 4.0 0.9
2020-Jan-21 04:00N 65°36' E 022°12'0 0.0 300 / 14993.0 4.2 0.9
2020-Jan-21 02:00N 65°36' E 022°12'0 0.0 310 / 14993.0 4.6 0.9
2020-Jan-21 01:00N 65°36' E 022°12'0 0.0 310 / 16993.0 5.3 0.9
2020-Jan-21 00:00N 65°36' E 022°12'0 0.0 310 / 16993.0 5.4 0.8
2020-Jan-20 23:00N 65°36' E 022°12'0 0.0 310 / 16993.0 5.8 0.8
2020-Jan-20 22:00N 65°36' E 022°12'0 0.0 270 / 10992.0 5.9 0.9
2020-Jan-20 20:00N 65°36' E 022°12'0 0.0 190 / 12992.0 3.5 0.8
2020-Jan-20 19:00N 65°36' E 022°12'0 0.0 180 / 8993.0 3.0 0.9
2020-Jan-20 18:00N 65°36' E 022°12'0 0.0 210 / 16995.0 3.5 0.9
2020-Jan-20 17:00N 65°36' E 022°12'0 0.0 220 / 14997.0 4.3 0.9
2020-Jan-20 16:00N 65°36' E 022°12'0 0.0 190 / 8999.0 2.7 0.9
2020-Jan-20 14:00N 65°36' E 022°12'0 0.0 210 / 141002.0 2.8 0.8
2020-Jan-20 13:00N 65°36' E 022°12'0 0.0 220 / 121003.0 2.5 0.8
2020-Jan-20 12:00N 65°36' E 022°12'0 0.0 210 / 101004.0 1.8 0.8
2020-Jan-20 11:00N 65°36' E 022°12'0 0.0 220 / 81004.0 0.9 0.7
2020-Jan-20 10:00N 65°36' E 022°12'0 0.0 170 / 101005.0 0.4 0.7
2020-Jan-20 08:00N 65°36' E 022°12'0 0.0 200 / 171005.0 0.4 0.8
2020-Jan-20 07:00N 65°36' E 022°12'0 0.0 210 / 141006.0 -0.2 0.7
2020-Jan-20 06:00N 65°36' E 022°12'0 0.0 180 / 101007.0 -0.7 0.7
2020-Jan-20 05:00N 65°36' E 022°12'0 0.0 200 / 191008.0 -0.9 0.8
2020-Jan-20 04:00N 65°36' E 022°12'0 0.0 200 / 141010.0 -1.5 0.7
2020-Jan-20 02:00N 65°36' E 022°12'0 0.0 160 / 81015.0 -3.9 0.8
2020-Jan-20 01:00N 65°36' E 022°12'0 0.0 200 / 101015.0 -4.2 0.9
2020-Jan-20 00:00N 65°36' E 022°12'0 0.0 200 / 121016.0 -4.6 0.8
2020-Jan-19 23:00N 65°36' E 022°12'0 0.0 180 / 81017.0 -5.8 0.8
2020-Jan-19 22:00N 65°36' E 022°12'0 0.0 180 / 61019.0 -6.7 0.9
2020-Jan-19 20:00N 65°36' E 022°12'0 0.0 310 / 41019.0 -5.7 0.9
2020-Jan-19 19:00N 65°36' E 022°12'0 0.0 010 / 21019.0 -5.9 0.9
2020-Jan-19 18:00N 65°36' E 022°12'0 0.0 320 / 121020.0 -5.2 0.9
2020-Jan-19 17:00N 65°36' E 022°12'0 0.0 330 / 121019.0 -4.6 0.8
2020-Jan-19 16:00N 65°36' E 022°12'0 0.0 330 / 61018.0 -4.9 0.8
2020-Jan-19 14:00N 65°36' E 022°12'0 0.0 340 / 121017.0 -4.5 0.9
2020-Jan-19 13:00N 65°36' E 022°12'0 0.0 340 / 161016.0 -4.4 0.9
2020-Jan-19 12:00N 65°36' E 022°12'0 0.0 340 / 121014.0 -5.2 0.9
2020-Jan-19 11:00N 65°36' E 022°12'0 0.0 340 / 121012.0 -5.5 0.9
2020-Jan-19 10:00N 65°36' E 022°12'0 0.0 340 / 121012.0 -5.9 0.9
2020-Jan-19 08:00N 65°36' E 022°12'0 0.0 340 / 141009.0 -5.2 0.9
2020-Jan-19 07:00N 65°36' E 022°12'0 0.0 350 / 141008.0 -5.0 0.9
2020-Jan-19 06:00N 65°36' E 022°12'0 0.0 350 / 161007.0 -5.0 0.9
2020-Jan-19 05:00N 65°36' E 022°12'0 0.0 350 / 161006.0 -5.3 0.9
2020-Jan-19 04:00N 65°36' E 022°12'0 0.0 340 / 121005.0 -5.5 0.9
2020-Jan-19 02:00N 65°36' E 022°12'0 0.0 340 / 141004.0 -5.6 0.9
2020-Jan-19 01:00N 65°36' E 022°12'0 0.0 350 / 141004.0 -5.7 0.9
2020-Jan-19 00:00N 65°36' E 022°12'0 0.0 350 / 121003.0 -5.9 0.9
2020-Jan-18 23:00N 65°36' E 022°12'0 0.0 350 / 121003.0 -6.0 0.9
2020-Jan-18 22:00N 65°36' E 022°12'0 0.0 340 / 121003.0 -6.0 0.9
2020-Jan-18 20:00N 65°36' E 022°12'0 0.0 350 / 121003.0 -6.1 0.9
2020-Jan-18 19:00N 65°36' E 022°12'0 0.0 350 / 101003.0 -6.0 0.8
2020-Jan-18 18:00N 65°36' E 022°12'0 0.0 350 / 101003.0 -5.9 0.8
2020-Jan-18 17:00N 65°36' E 022°12'0 0.0 350 / 101002.0 -5.8 0.8
2020-Jan-18 16:00N 65°36' E 022°12'0 0.0 350 / 101003.0 -5.7 0.8
2020-Jan-18 14:00N 65°36' E 022°12'0 0.0 350 / 81003.0 -5.7 0.8
2020-Jan-18 13:00N 65°36' E 022°12'0 0.0 350 / 101003.0 -5.7 0.8
2020-Jan-18 12:00N 65°36' E 022°12'0 0.0 350 / 121004.0 -5.8 0.8
2020-Jan-18 11:00N 65°36' E 022°12'0 0.0 350 / 101004.0 -5.9 0.8
2020-Jan-18 10:00N 65°36' E 022°12'0 0.0 350 / 81005.0 -6.3 0.8
2020-Jan-18 08:00N 65°36' E 022°12'0 0.0 350 / 101006.0 -6.8 0.8
2020-Jan-18 07:00N 65°36' E 022°12'0 0.0 350 / 101006.0 -7.1 0.8
2020-Jan-18 06:00N 65°36' E 022°12'0 0.0 350 / 81007.0 -7.2 0.8
2020-Jan-18 05:00N 65°36' E 022°12'0 0.0 350 / 61007.0 -7.3 0.8
2020-Jan-18 04:00N 65°36' E 022°12'0 0.0 350 / 81008.0 -7.5 0.8
2020-Jan-18 02:00N 65°36' E 022°12'0 0.0 350 / 81009.0 -7.7 0.8
2020-Jan-18 01:00N 65°36' E 022°12'0 0.0 350 / 81010.0 -7.7 0.8
2020-Jan-18 00:00N 65°36' E 022°12'0 0.0 350 / 81010.0 -7.8 0.8
2020-Jan-17 23:00N 65°36' E 022°12'0 0.0 1011.0 -7.9 0.8
2020-Jan-17 22:00N 65°36' E 022°12'0 0.0 1011.0 -8.0 0.8
2020-Jan-17 20:00N 65°36' E 022°12'0 0.0 1012.0 -8.2 0.8
2020-Jan-17 19:00N 65°36' E 022°12'0 0.0 010 / 61012.0 -8.3 0.8
2020-Jan-17 18:00N 65°36' E 022°12'0 0.0 010 / 61012.0 -8.3 0.8
2020-Jan-17 17:00N 65°36' E 022°12'0 0.0 1013.0 -8.4 0.8
2020-Jan-17 16:00N 65°36' E 022°12'0 0.0 360 / 61012.0 -8.6 0.8
2020-Jan-17 14:00N 65°36' E 022°12'0 0.0 010 / 41012.0 -8.2 0.7
2020-Jan-17 13:00N 65°36' E 022°12'0 0.0 360 / 61012.0 -8.2 0.8
2020-Jan-17 12:00N 65°36' E 022°12'0 0.0 1011.0 -8.1 0.7
2020-Jan-17 11:00N 65°36' E 022°12'0 0.0 1011.0 -7.4 0.7
2020-Jan-17 10:00N 65°36' E 022°12'0 0.0 350 / 81010.0 -7.4 0.8
2020-Jan-17 08:00N 65°36' E 022°12'0 0.0 350 / 81008.0 -8.8
2020-Jan-17 07:00N 65°36' E 022°12'0 0.0 350 / 61007.0 -9.4
2020-Jan-17 06:00N 65°36' E 022°12'0 0.0 350 / 61006.0 -9.3
2020-Jan-17 05:00N 65°36' E 022°12'0 0.0 350 / 41005.0 -9.1
2020-Jan-17 04:00N 65°36' E 022°12'0 0.0 350 / 61004.0 -8.6
2020-Jan-17 02:00N 65°36' E 022°12'0 0.0 330 / 41003.0 -7.8
2020-Jan-17 01:00N 65°36' E 022°12'0 0.0 340 / 41003.0 -6.8
2020-Jan-17 00:00N 65°36' E 022°12'0 0.0 320 / 21002.0 -3.9
2020-Jan-16 23:00N 65°36' E 022°12'0 0.0 180 / 41002.0 -3.6
2020-Jan-16 22:00N 65°36' E 022°12'0 0.0 200 / 61002.0 -3.3
2020-Jan-16 20:00N 65°36' E 022°12'0 0.0 210 / 101002.0 -2.8
2020-Jan-16 19:00N 65°36' E 022°12'0 0.0 150 / 61002.0 -4.3
2020-Jan-16 18:00N 65°36' E 022°12'0 0.0 170 / 81003.0 -5.5
2020-Jan-16 17:00N 65°36' E 022°12'0 0.0 120 / 41003.0 -6.7
2020-Jan-16 16:00N 65°36' E 022°12'0 0.0 180 / 61003.0 -7.2
2020-Jan-16 14:00N 65°36' E 022°12'0 0.0 120 / 21003.0 -7.9
2020-Jan-16 13:00N 65°36' E 022°12'0 0.0 020 / 21002.0 -7.4
2020-Jan-16 12:00N 65°36' E 022°12'0 0.0 320 / 41003.0 -7.3
2020-Jan-16 11:00N 65°36' E 022°12'0 0.0 350 / 61002.0 -8.1
2020-Jan-16 10:00N 65°36' E 022°12'0 0.0 340 / 41001.0 -8.4
2020-Jan-16 08:00N 65°36' E 022°12'0 0.0 350 / 2999.0 -8.4
2020-Jan-16 07:00N 65°36' E 022°12'0 0.0 350 / 6998.0 -8.3
2020-Jan-16 06:00N 65°36' E 022°12'0 0.0 350 / 6997.0 -7.9
2020-Jan-16 05:00N 65°36' E 022°12'0 0.0 350 / 6997.0 -7.7
2020-Jan-16 04:00N 65°36' E 022°12'0 0.0 350 / 8996.0 -7.3
2020-Jan-16 02:00N 65°36' E 022°12'0 0.0 340 / 12995.0 -7.1
2020-Jan-16 01:00N 65°36' E 022°12'0 0.0 340 / 8994.0 -6.9
2020-Jan-16 00:00N 65°36' E 022°12'0 0.0 350 / 8993.0 -6.7
2020-Jan-15 23:00N 65°36' E 022°12'0 0.0 360 / 8992.0 -7.0
2020-Jan-15 22:00N 65°36' E 022°12'0 0.0 360 / 8991.0 -7.2
2020-Jan-15 20:00N 65°36' E 022°12'0 0.0 350 / 10989.0 -5.9
2020-Jan-15 19:00N 65°36' E 022°12'0 0.0 350 / 6988.0 -4.0
2020-Jan-15 18:00N 65°36' E 022°12'0 0.0 360 / 6986.0 -3.6
2020-Jan-15 17:00N 65°36' E 022°12'0 0.0 320 / 6985.0 -3.1
2020-Jan-15 16:00N 65°36' E 022°12'0 0.0 300 / 4984.0 -1.9
2020-Jan-15 14:00N 65°36' E 022°12'0 0.0 230 / 2983.0 -1.4
2020-Jan-15 13:00N 65°36' E 022°12'0 0.0 100 / 2983.0 -0.8
2020-Jan-15 12:00N 65°36' E 022°12'0 0.0 230 / 2983.0 -0.6
2020-Jan-15 11:00N 65°36' E 022°12'0 0.0 180 / 6983.0 -0.4
2020-Jan-15 10:00N 65°36' E 022°12'0 0.0 170 / 6984.0 -0.9
2020-Jan-15 08:00N 65°36' E 022°12'0 0.0 170 / 8984.0 -0.2
2020-Jan-15 07:00N 65°36' E 022°12'0 0.0 170 / 4984.0 -0.2
2020-Jan-15 06:00N 65°36' E 022°12'0 0.0 190 / 8984.0 -0.1
2020-Jan-15 05:00N 65°36' E 022°12'0 0.0 200 / 6984.0 -0.2
2020-Jan-15 04:00N 65°36' E 022°12'0 0.0 230 / 6984.0 0.4
2020-Jan-15 02:00N 65°36' E 022°12'0 0.0 220 / 8983.0 0.5
2020-Jan-15 01:00N 65°36' E 022°12'0 0.0 210 / 12983.0 0.9
2020-Jan-15 00:00N 65°36' E 022°12'0 0.0 210 / 12983.0 0.8
2020-Jan-14 23:00N 65°36' E 022°12'0 0.0 220 / 10983.0 1.1
2020-Jan-14 22:00N 65°36' E 022°12'0 0.0 220 / 10983.0 1.5
2020-Jan-14 20:00N 65°36' E 022°12'0 0.0 210 / 12983.0 1.1
2020-Jan-14 19:00N 65°36' E 022°12'0 0.0 200 / 17983.0 0.8
2020-Jan-14 18:00N 65°36' E 022°12'0 0.0 190 / 23983.0 0.6
2020-Jan-14 17:00N 65°36' E 022°12'0 0.0 190 / 25984.0 0.6
2020-Jan-14 16:00N 65°36' E 022°12'0 0.0 190 / 27986.0 1.1
2020-Jan-14 14:00N 65°36' E 022°12'0 0.0 190 / 27989.0 1.3
2020-Jan-14 13:00N 65°36' E 022°12'0 0.0 180 / 21990.0 1.3
2020-Jan-14 12:00N 65°36' E 022°12'0 0.0 180 / 14991.0 0.1
2020-Jan-14 11:00N 65°36' E 022°12'0 0.0 190 / 14993.0 -0.4
2020-Jan-14 10:00N 65°36' E 022°12'0 0.0 200 / 16992.0 -0.5
2020-Jan-14 08:00N 65°36' E 022°12'0 0.0 180 / 8993.0 -0.9
2020-Jan-14 07:00N 65°36' E 022°12'0 0.0 190 / 6994.0 -0.7
2020-Jan-14 06:00N 65°36' E 022°12'0 0.0 120 / 4994.0 -0.7
2020-Jan-14 05:00N 65°36' E 022°12'0 0.0 150 / 4995.0 -0.9
2020-Jan-14 04:00N 65°36' E 022°12'0 0.0 190 / 8995.0 -0.2
2020-Jan-14 02:00N 65°36' E 022°12'   170 / 4994.0 -0.8

Dump ship's entire track history